Change the Weather History Date:

Saturday, September 14, 2013

  Actual Average Record
Temperature  
Mean Temperature 60 °F -  
Max Temperature 73 °F 73 °F 80 °F (1998)
Min Temperature 46 °F 51 °F 35 °F (1996)
Degree Days  
Heating Degree Days 6    
Growing Degree Days 10 (Base 50)    
Moisture  
Dew Point 47 °F    
Average Humidity 63    
Maximum Humidity 87    
Minimum Humidity 36    
Precipitation  
Precipitation 0.08 in - - ()
Sea Level Pressure  
Sea Level Pressure 30.00 in    
Wind  
Wind Speed 10 mph (South)    
Max Wind Speed 21 mph    
Max Gust Speed 28 mph    
Visibility 10 miles    
Events Rain    
Averages and records for this station are not official NWS values.
T = Trace of Precipitation, MM = Missing Value Source: NWS Daily Summary

Daily Weather History Graph

Daily Weather History Graph

Search for Another Location

Airport or City:

Trip Planner

Search our weather history database for the weather conditions in past years. The results will help you decide how hot, cold, wet, or windy it might be!

Date:

Astronomy

Sep. 14, 2013 Rise Set
Actual Time 6:55 AM CDT 7:28 PM CDT
Civil Twilight 6:27 AM CDT 7:56 PM CDT
Nautical Twilight 5:53 AM CDT 8:30 PM CDT
Astronomical Twilight 5:18 AM CDT 9:05 PM CDT
Moon 4:16 PM CDT (9/14) 1:22 AM CDT (9/14)
Length of Visible Light 13h 29m
Length of Day
12h 32m
Waxing Gibbous, 72% of the Moon is Illuminated
Sep 14
Waxing Gibbous
Sep 19
Full
Sep 26
Last Quarter
Oct 4
New
Oct 11
First Quarter

Hourly Weather History & Observations

Time (CDT) Temp. Windchill Dew Point Humidity Pressure Visibility Wind Dir Wind Speed Gust Speed Precip Events Conditions
12:15 AM 53.6 °F - 44.6 °F 72% 30.11 in 10.0 mi SSE 8.1 mph - N/A   Clear
12:35 AM 53.6 °F - 44.6 °F 72% 30.10 in 10.0 mi SE 6.9 mph - N/A   Clear
12:55 AM 53.6 °F - 44.6 °F 72% 30.10 in 10.0 mi SE 8.1 mph - N/A   Clear
1:15 AM 53.6 °F - 44.6 °F 72% 30.10 in 10.0 mi SE 6.9 mph - N/A   Clear
1:35 AM 53.6 °F - 44.6 °F 72% 30.10 in 10.0 mi SE 6.9 mph - N/A   Clear
1:55 AM 53.6 °F - 44.6 °F 72% 30.10 in 10.0 mi SE 8.1 mph - N/A   Clear
2:15 AM 53.6 °F - 44.6 °F 72% 30.10 in 10.0 mi SSE 9.2 mph - N/A   Clear
2:35 AM 51.8 °F - 44.6 °F 76% 30.10 in 10.0 mi SSE 6.9 mph - N/A   Clear
2:55 AM 51.8 °F - 44.6 °F 76% 30.10 in 10.0 mi SSE 6.9 mph - N/A   Clear
3:15 AM 51.8 °F - 44.6 °F 76% 30.10 in 10.0 mi SSE 9.2 mph - N/A   Clear
3:35 AM 51.8 °F - 44.6 °F 76% 30.09 in 10.0 mi SSE 9.2 mph - N/A   Clear
3:55 AM 50.0 °F - 44.6 °F 82% 30.09 in 10.0 mi SSE 6.9 mph - N/A   Clear
4:15 AM 50.0 °F - 44.6 °F 82% 30.09 in 10.0 mi SSE 6.9 mph - N/A   Clear
4:35 AM 50.0 °F - 44.6 °F 82% 30.09 in 10.0 mi South 8.1 mph - N/A   Clear
4:55 AM 50.0 °F - 44.6 °F 82% 30.09 in 10.0 mi SSE 8.1 mph - N/A   Clear
5:15 AM 50.0 °F - 44.6 °F 82% 30.09 in 10.0 mi SSE 6.9 mph - N/A   Clear
5:35 AM 50.0 °F - 44.6 °F 82% 30.09 in 10.0 mi South 8.1 mph - N/A   Clear
5:55 AM 48.2 °F - 42.8 °F 82% 30.09 in - South 4.6 mph - N/A   Clear
6:15 AM 46.4 °F 43.5 °F 42.8 °F 87% 30.09 in 10.0 mi South 5.8 mph - N/A   Clear
6:35 AM 46.4 °F 42.4 °F 42.8 °F 87% 30.09 in 10.0 mi South 8.1 mph - N/A   Clear
6:55 AM 48.2 °F - 42.8 °F 82% 30.09 in 10.0 mi South 6.9 mph - N/A   Clear
7:15 AM 48.2 °F - 42.8 °F 82% 30.09 in 10.0 mi South 8.1 mph - N/A   Clear
7:35 AM 48.2 °F - 42.8 °F 82% 30.09 in 10.0 mi South 9.2 mph - N/A   Clear
7:55 AM 48.2 °F - 42.8 °F 82% 30.09 in 10.0 mi South 9.2 mph - N/A   Clear
8:15 AM 51.8 °F - 44.6 °F 76% 30.09 in 10.0 mi South 9.2 mph - N/A   Clear
8:35 AM 53.6 °F - 44.6 °F 72% 30.09 in 10.0 mi South 11.5 mph - N/A   Clear
8:55 AM 55.4 °F - 44.6 °F 67% 30.08 in 10.0 mi South 10.4 mph - N/A   Clear
9:15 AM 57.2 °F - 44.6 °F 63% 30.08 in 10.0 mi South 12.7 mph - N/A   Clear
9:35 AM 59.0 °F - 44.6 °F 59% 30.07 in 10.0 mi SSW 12.7 mph - N/A   Clear
9:55 AM 62.6 °F - 44.6 °F 52% 30.07 in 10.0 mi SSW 15.0 mph - N/A   Clear
10:15 AM 64.4 °F - 44.6 °F 49% 30.07 in 10.0 mi South 15.0 mph - N/A   Clear
10:35 AM 68.0 °F - 44.6 °F 43% 30.06 in 10.0 mi South 16.1 mph - N/A   Clear
10:55 AM 68.0 °F - 44.6 °F 43% 30.06 in 10.0 mi South 15.0 mph 21.9 mph N/A   Clear
11:15 AM 69.8 °F - 44.6 °F 40% 30.05 in 10.0 mi South 17.3 mph - N/A   Clear
11:35 AM 69.8 °F - 44.6 °F 40% 30.04 in 10.0 mi South 17.3 mph - N/A   Clear
11:55 AM 71.6 °F - 44.6 °F 38% 30.03 in 10.0 mi SSW 17.3 mph 24.2 mph N/A   Clear
12:15 PM 69.8 °F - 46.4 °F 43% 30.03 in 10.0 mi SSW 16.1 mph 23.0 mph N/A   Clear
12:35 PM 69.8 °F - 46.4 °F 43% 30.02 in 10.0 mi South 17.3 mph - N/A   Clear
12:55 PM 71.6 °F - 46.4 °F 41% 30.01 in 10.0 mi South 17.3 mph 25.3 mph N/A   Clear
1:15 PM 71.6 °F - 44.6 °F 38% 30.00 in 10.0 mi South 18.4 mph - N/A   Clear
1:35 PM 71.6 °F - 44.6 °F 38% 30.00 in 10.0 mi SSW 16.1 mph 27.6 mph N/A   Clear
1:55 PM 71.6 °F - 44.6 °F 38% 29.99 in 10.0 mi South 20.7 mph 27.6 mph N/A   Clear
2:15 PM 73.4 °F - 44.6 °F 36% 29.98 in 10.0 mi South 20.7 mph - N/A   Partly Cloudy
2:35 PM 73.4 °F - 44.6 °F 36% 29.97 in 10.0 mi South 17.3 mph 25.3 mph N/A   Scattered Clouds
2:55 PM 73.4 °F - 44.6 °F 36% 29.96 in 10.0 mi SSW 20.7 mph - N/A   Clear
3:15 PM 73.4 °F - 44.6 °F 36% 29.95 in 10.0 mi South 18.4 mph - N/A   Clear
3:35 PM 73.4 °F - 44.6 °F 36% 29.95 in 10.0 mi South 15.0 mph - N/A   Clear
3:55 PM 71.6 °F - 44.6 °F 38% 29.94 in 10.0 mi South 12.7 mph 21.9 mph N/A   Clear
4:15 PM 73.4 °F - 46.4 °F 38% 29.93 in 10.0 mi South 16.1 mph - N/A   Partly Cloudy
4:35 PM 73.4 °F - 46.4 °F 38% 29.93 in 10.0 mi South 15.0 mph 23.0 mph N/A   Scattered Clouds
4:55 PM 73.4 °F - 44.6 °F 36% 29.92 in 10.0 mi South 17.3 mph 25.3 mph N/A   Partly Cloudy
5:15 PM 73.4 °F - 46.4 °F 38% 29.92 in 10.0 mi South 13.8 mph - N/A   Mostly Cloudy
5:35 PM 71.6 °F - 46.4 °F 41% 29.91 in 10.0 mi South 12.7 mph 18.4 mph N/A   Mostly Cloudy
5:55 PM 71.6 °F - 46.4 °F 41% 29.91 in 10.0 mi South 13.8 mph - N/A   Clear
6:15 PM 71.6 °F - 46.4 °F 41% 29.91 in 10.0 mi South 13.8 mph - N/A   Mostly Cloudy
6:35 PM 69.8 °F - 48.2 °F 46% 29.91 in 10.0 mi South 9.2 mph - N/A   Mostly Cloudy
6:55 PM 64.4 °F - 53.6 °F 68% 29.91 in 4.0 mi South 10.4 mph - 0.02 in Rain Light Rain
7:15 PM 62.6 °F - 55.4 °F 77% 29.89 in 8.0 mi SSE 9.2 mph - N/A   Light Drizzle
7:35 PM 62.6 °F - 53.6 °F 72% 29.88 in 9.0 mi South 12.7 mph - N/A Rain Light Rain
7:55 PM 62.6 °F - 53.6 °F 72% 29.87 in 10.0 mi South 11.5 mph - 0.01 in   Overcast
8:15 PM 62.6 °F - 53.6 °F 72% 29.87 in 7.0 mi South 13.8 mph 19.6 mph N/A   Mostly Cloudy
8:35 PM 62.6 °F - 53.6 °F 72% 29.88 in 10.0 mi South 11.5 mph - N/A   Overcast
8:55 PM 62.6 °F - 53.6 °F 72% 29.88 in 9.0 mi SSW 11.5 mph - N/A   Overcast
9:15 PM 62.6 °F - 53.6 °F 72% 29.87 in 10.0 mi South 11.5 mph - N/A   Scattered Clouds
9:35 PM 62.6 °F - 53.6 °F 72% 29.86 in 10.0 mi South 13.8 mph - N/A   Overcast
9:55 PM 60.8 °F - 55.4 °F 82% 29.86 in 7.0 mi South 12.7 mph - 0.01 in   Overcast
10:15 PM 60.8 °F - 55.4 °F 82% 29.86 in 6.0 mi South 11.5 mph - N/A Rain Light Rain
10:35 PM 60.8 °F - 55.4 °F 82% 29.86 in 10.0 mi South 10.4 mph - N/A   Overcast
10:55 PM 60.8 °F - 55.4 °F 82% 29.86 in 10.0 mi South 9.2 mph - 0.04 in   Overcast
11:15 PM 60.8 °F - 55.4 °F 82% 29.86 in 10.0 mi South 10.4 mph - N/A   Overcast
11:35 PM 60.8 °F - 55.4 °F 82% 29.86 in 10.0 mi South 10.4 mph - N/A   Overcast
11:55 PM 60.8 °F - 55.4 °F 82% 29.85 in 10.0 mi South 10.4 mph - N/A   Overcast